.
WxDataArchive / Data Records for 2006-09-07
2006-09-06 September 2006 2006-09-08

Data Records for Thursday, 07 September 2006

Time	Temp	Chill	HIndex	Humid	Dewpt	 Wind 	HiWind	WindDir	Rain 	Barom 
-----	----	-----	------	-----	-----	------	------	-------	-----	----- 
00:00	59.0	59.0	59.0	91	56.4	0	0	---	0.00	30.031 
00:05	58.9	58.9	58.9	92	56.6	0	0	---	0.00	30.031 
00:10	58.9	58.9	58.9	92	56.6	0	0	---	0.00	30.031 
00:15	58.7	58.7	58.7	92	56.4	0	0	---	0.00	30.030 
00:20	58.6	58.6	58.6	92	56.3	0	0	---	0.00	30.030 
00:25	58.4	58.4	58.4	92	56.1	0	0	---	0.00	30.030 
00:30	58.4	58.4	58.4	92	56.1	0	1	292	0.00	30.039 
00:35	58.4	58.4	58.4	93	56.4	0	1	292	0.00	30.039 
00:40	58.7	58.7	58.7	94	57.0	0	0	---	0.00	30.039 
00:45	58.7	58.7	58.7	94	57.0	0	0	---	0.00	30.035 
00:50	58.9	58.9	58.9	94	57.2	0	0	---	0.00	30.035 
00:55	58.9	58.9	58.9	94	57.2	0	0	---	0.00	30.035 
01:00	58.9	58.9	58.9	93	56.9	0	0	---	0.00	30.035 
01:05	58.7	58.7	58.7	93	56.7	0	0	---	0.00	30.035 
01:10	58.6	58.6	58.6	93	56.6	0	0	---	0.00	30.035 
01:15	58.4	58.4	58.4	93	56.4	0	0	---	0.00	30.030 
01:20	58.4	58.4	58.4	93	56.4	0	0	---	0.00	30.030 
01:25	58.3	58.3	58.3	93	56.3	0	0	---	0.00	30.030 
01:30	58.1	58.1	58.1	93	56.1	0	0	---	0.00	30.030 
01:35	58.1	58.1	58.1	93	56.1	0	0	---	0.00	30.030 
01:40	58.0	58.0	58.0	93	56.0	0	0	---	0.00	30.030 
01:45	57.8	57.8	57.8	93	55.8	0	0	---	0.00	30.028 
01:50	57.6	57.6	57.6	93	55.6	0	0	---	0.00	30.028 
01:55	57.5	57.5	57.5	93	55.5	0	0	---	0.00	30.028 
02:00	57.5	57.5	57.5	94	55.8	0	0	---	0.00	30.026 
02:05	57.5	57.5	57.5	94	55.8	0	0	---	0.00	30.026 
02:10	57.3	57.3	57.3	94	55.6	0	0	---	0.00	30.026 
02:15	57.3	57.3	57.3	94	55.6	0	0	---	0.00	30.024 
02:20	57.2	57.2	57.2	94	55.5	0	0	---	0.00	30.024 
02:25	57.0	57.0	57.0	94	55.3	0	0	---	0.00	30.024 
02:30	57.0	57.0	57.0	94	55.3	0	0	---	0.00	30.022 
02:35	56.9	56.9	56.9	94	55.2	0	0	---	0.00	30.022 
02:40	56.9	56.9	56.9	94	55.2	0	0	---	0.00	30.022 
02:45	56.7	56.7	56.7	95	55.3	0	0	---	0.00	30.016 
02:50	56.7	56.7	56.7	95	55.3	0	0	---	0.00	30.016 
02:55	56.6	56.6	56.6	95	55.2	0	0	---	0.00	30.016 
03:00	56.6	56.6	56.6	95	55.2	0	0	---	0.00	30.015 
03:05	56.5	56.5	56.5	95	55.1	0	0	---	0.00	30.015 
03:10	56.5	56.5	56.5	95	55.1	0	0	---	0.00	30.015 
03:15	56.5	56.5	56.5	95	55.1	0	0	---	0.00	30.014 
03:20	56.3	56.3	56.3	95	54.9	0	0	---	0.00	30.014 
03:25	56.3	56.3	56.3	95	54.9	0	0	---	0.00	30.014 
03:30	56.2	56.2	56.2	95	54.8	0	0	---	0.00	30.016 
03:35	56.0	56.0	56.0	95	54.6	0	0	---	0.00	30.016 
03:40	56.0	56.0	56.0	95	54.6	0	0	---	0.00	30.016 
03:45	55.9	55.9	55.9	95	54.5	0	0	---	0.00	30.015 
03:50	55.9	55.9	55.9	95	54.5	0	0	---	0.00	30.015 
03:55	55.7	55.7	55.7	95	54.3	0	0	---	0.00	30.015 
04:00	55.6	55.6	55.6	95	54.2	0	0	---	0.00	30.015 
04:05	55.6	55.6	55.6	95	54.2	0	0	---	0.00	30.015 
04:10	55.4	55.4	55.4	95	54.0	0	0	---	0.00	30.015 
04:15	55.4	55.4	55.4	95	54.0	0	0	---	0.00	30.016 
04:20	55.3	55.3	55.3	95	53.9	0	0	---	0.00	30.016 
04:25	55.1	55.1	55.1	95	53.7	0	0	---	0.00	30.016 
04:30	55.1	55.1	55.1	95	53.7	0	0	---	0.00	30.016 
04:35	55.0	55.0	55.0	95	53.6	0	0	---	0.00	30.016 
04:40	54.8	54.8	54.8	95	53.4	0	0	---	0.00	30.016 
04:45	54.8	54.8	54.8	95	53.4	0	0	---	0.00	30.015 
04:50	54.7	54.7	54.7	95	53.3	0	0	---	0.00	30.015 
04:55	54.7	54.7	54.7	95	53.3	0	0	---	0.00	30.015 
05:00	54.7	54.7	54.7	95	53.3	0	0	---	0.00	30.016 
05:05	54.7	54.7	54.7	95	53.3	0	0	---	0.00	30.016 
05:10	54.5	54.5	54.5	95	53.1	0	0	---	0.00	30.016 
05:15	54.5	54.5	54.5	96	53.4	0	0	---	0.00	30.016 
05:20	54.5	54.5	54.5	96	53.4	0	0	---	0.00	30.016 
05:25	54.4	54.4	54.4	95	53.0	0	0	---	0.00	30.016 
05:30	54.2	54.2	54.2	95	52.8	0	0	---	0.00	30.017 
05:35	54.2	54.2	54.2	96	53.1	0	0	---	0.00	30.017 
05:40	54.1	54.1	54.1	96	53.0	0	0	---	0.00	30.017 
05:45	54.1	54.1	54.1	96	53.0	0	0	---	0.00	30.019 
05:50	54.1	54.1	54.1	96	53.0	0	0	---	0.00	30.019 
05:55	54.1	54.1	54.1	96	53.0	0	0	---	0.00	30.019 
06:00	53.9	53.9	53.9	96	52.8	0	0	---	0.00	30.018 
06:05	53.8	53.8	53.8	96	52.7	0	0	---	0.00	30.018 
06:10	53.8	53.8	53.8	96	52.7	0	0	---	0.00	30.018 
06:15	53.6	53.6	53.6	96	52.5	0	0	---	0.00	30.021 
06:20	53.6	53.6	53.6	96	52.5	0	0	---	0.00	30.021 
06:25	53.6	53.6	53.6	96	52.5	0	0	---	0.00	30.021 
06:30	53.6	53.6	53.6	96	52.5	0	0	---	0.00	30.019 
06:35	53.6	53.6	53.6	96	52.5	0	0	---	0.00	30.019 
06:40	53.6	53.6	53.6	96	52.5	0	0	---	0.00	30.019 
06:45	53.5	53.5	53.5	96	52.4	0	0	---	0.00	30.022 
06:50	53.5	53.5	53.5	96	52.4	0	0	---	0.00	30.022 
06:55	53.3	53.3	53.3	96	52.2	0	0	---	0.00	30.022 
07:00	53.2	53.2	53.2	96	52.1	0	0	---	0.00	30.024 
07:05	53.2	53.2	53.2	96	52.1	0	0	---	0.00	30.024 
07:10	53.2	53.2	53.2	96	52.1	0	0	---	0.00	30.024 
07:15	53.2	53.2	53.2	96	52.1	0	0	---	0.00	30.036 
07:20	53.2	53.2	53.2	96	52.1	0	0	---	0.00	30.036 
07:25	53.1	53.1	53.1	96	52.0	0	0	---	0.00	30.036 
07:30	53.2	53.2	53.2	96	52.1	0	0	---	0.00	30.038 
07:35	53.2	53.2	53.2	96	52.1	0	0	---	0.00	30.038 
07:40	53.3	53.3	53.3	96	52.2	0	0	---	0.00	30.038 
07:45	53.5	53.5	53.5	96	52.4	0	0	---	0.00	30.040 
07:50	53.6	53.6	53.6	97	52.8	0	0	---	0.00	30.040 
07:55	53.8	53.8	53.8	97	53.0	0	0	---	0.00	30.040 
08:00	54.1	54.1	54.1	97	53.3	0	0	---	0.00	30.039 
08:05	54.5	54.5	54.5	97	53.7	0	0	---	0.00	30.039 
08:10	55.0	55.0	55.0	97	54.2	0	0	---	0.00	30.039 
08:15	55.4	55.4	55.4	97	54.6	0	0	---	0.00	30.052 
08:20	55.9	55.9	55.9	97	55.1	0	0	---	0.00	30.052 
08:25	56.5	56.5	56.5	97	55.7	0	0	---	0.00	30.052 
08:30	57.0	57.0	57.0	97	56.2	0	0	---	0.00	30.051 
08:35	57.6	57.6	57.6	97	56.8	0	0	---	0.00	30.051 
08:40	58.0	58.0	58.0	97	57.2	0	0	---	0.00	30.051 
08:45	58.3	58.3	58.3	97	57.5	0	0	---	0.00	30.048 
08:50	58.7	58.7	58.7	97	57.8	0	0	---	0.00	30.048 
08:55	59.0	59.0	59.0	97	58.1	0	0	---	0.00	30.048 
09:00	59.5	59.5	59.5	97	58.6	0	0	---	0.00	30.049 
09:05	59.6	59.6	59.6	97	58.7	0	1	292	0.00	30.049 
09:10	59.8	59.8	59.8	96	58.7	0	0	---	0.00	30.049 
09:15	60.1	60.1	60.1	96	59.0	0	0	---	0.00	30.052 
09:20	60.7	60.7	60.7	96	59.6	0	0	---	0.00	30.052 
09:25	61.2	61.2	61.2	92	58.9	0	1	292	0.00	30.052 
09:30	61.8	61.8	61.8	89	58.5	0	1	292	0.00	30.052 
09:35	62.4	62.4	62.4	88	58.8	0	1	292	0.00	30.052 
09:40	63.2	63.2	63.2	86	58.9	0	1	292	0.00	30.052 
09:45	64.0	64.0	64.0	84	59.1	0	0	---	0.00	30.051 
09:50	64.8	64.8	64.8	83	59.5	0	1	292	0.00	30.051 
09:55	65.6	65.6	65.6	81	59.6	0	1	292	0.00	30.051 
10:00	66.6	66.6	66.6	77	59.2	0	2	292	0.00	30.051 
10:05	67.6	67.6	67.6	76	59.8	0	1	292	0.00	30.051 
10:10	68.8	68.8	68.8	73	59.8	0	1	292	0.00	30.051 
10:15	69.8	69.8	69.8	71	60.0	1	3	22	0.00	30.052 
10:20	70.4	70.4	70.4	71	60.5	0	2	22	0.00	30.052 
10:25	70.9	70.9	70.9	69	60.2	0	2	22	0.00	30.052 
10:30	71.5	71.5	71.5	68	60.4	1	2	22	0.00	30.055 
10:35	72.0	72.0	72.0	68	60.8	1	3	45	0.00	30.055 
10:40	72.3	72.3	72.3	66	60.3	1	2	45	0.00	30.055 
10:45	72.7	72.7	72.7	67	61.1	1	3	90	0.00	30.056 
10:50	73.0	73.0	73.0	66	61.0	0	2	68	0.00	30.056 
10:55	73.7	73.7	73.7	64	60.7	0	1	68	0.00	30.056 
11:00	73.9	73.9	73.9	63	60.5	0	3	68	0.00	30.057 
11:05	74.2	74.2	74.2	65	61.7	0	2	68	0.00	30.057 
11:10	74.4	74.4	74.4	65	61.8	1	2	68	0.00	30.057 
11:15	74.2	74.2	74.2	63	60.8	1	3	270	0.00	30.060 
11:20	74.7	74.7	74.7	64	61.7	1	3	135	0.00	30.060 
11:25	75.1	75.1	77.3	62	61.2	1	3	248	0.00	30.060 
11:30	75.8	75.8	77.8	63	62.3	0	2	202	0.00	30.060 
11:35	76.1	76.1	78.1	61	61.7	1	3	248	0.00	30.060 
11:40	76.1	76.1	78.1	60	61.2	1	3	248	0.00	30.060 
11:45	76.3	76.3	78.2	60	61.4	1	3	112	0.00	30.058 
11:50	76.1	76.1	78.1	58	60.2	2	4	248	0.00	30.058 
11:55	76.1	76.1	78.1	59	60.7	1	4	68	0.00	30.058 
12:00	76.3	76.3	78.3	56	59.4	1	4	68	0.00	30.055 
12:05	76.3	76.3	78.2	58	60.4	1	3	248	0.00	30.055 
12:10	76.5	76.5	78.4	59	61.1	1	2	248	0.00	30.055 
12:15	76.8	76.8	78.6	58	60.9	1	4	90	0.00	30.047 
12:20	76.8	76.8	78.6	57	60.4	2	4	112	0.00	30.047 
12:25	76.5	76.5	78.4	59	61.1	2	5	248	0.00	30.047 
12:30	77.2	77.2	78.9	60	62.2	1	4	248	0.00	30.044 
12:35	77.6	77.6	79.2	56	60.6	1	3	248	0.00	30.044 
12:40	77.6	77.6	79.2	56	60.6	1	3	270	0.00	30.044 
12:45	77.7	77.7	79.3	56	60.7	1	4	248	0.00	30.041 
12:50	77.9	77.9	79.5	59	62.4	1	3	248	0.00	30.041 
12:55	78.1	78.1	79.6	57	61.6	1	5	248	0.00	30.041 
13:00	78.1	78.1	79.5	55	60.6	1	4	248	0.00	30.036 
13:05	78.3	78.3	79.7	54	60.3	1	4	248	0.00	30.036 
13:10	77.9	77.9	79.4	55	60.4	1	2	292	0.00	30.036 
13:15	77.7	77.7	79.3	56	60.7	1	4	292	0.00	30.030 
13:20	77.4	77.4	79.0	54	59.4	1	6	248	0.00	30.030 
13:25	77.7	77.7	79.3	56	60.7	1	6	248	0.00	30.030 
13:30	77.6	77.6	79.1	53	59.1	2	4	248	0.00	30.029 
13:35	77.0	77.0	78.7	56	60.1	1	3	248	0.00	30.029 
13:40	77.6	77.6	79.1	54	59.6	2	4	270	0.00	30.029 
13:45	78.3	78.3	79.6	53	59.7	2	6	270	0.00	30.027 
13:50	78.8	78.8	80.1	54	60.7	1	4	270	0.00	30.027 
13:55	78.8	78.8	79.8	50	58.6	1	4	270	0.00	30.027 
14:00	77.9	77.9	79.3	52	58.8	1	3	248	0.00	30.025 
14:05	77.9	77.9	79.5	57	61.4	1	2	248	0.00	30.025 
14:10	77.7	77.7	79.1	52	58.6	1	3	248	0.00	30.025 
14:15	78.3	78.3	79.6	53	59.7	1	3	270	0.00	30.021 
14:20	78.5	78.5	79.6	51	58.8	1	3	248	0.00	30.021 
14:25	78.1	78.1	79.4	51	58.5	1	3	248	0.00	30.021 
14:30	77.6	77.6	79.1	53	59.1	1	3	248	0.00	30.018 
14:35	77.2	77.2	78.8	53	58.7	1	3	248	0.00	30.018 
14:40	77.6	77.6	79.0	50	57.5	0	2	248	0.00	30.018 
14:45	78.6	78.6	79.8	52	59.5	2	4	248	0.00	30.013 
14:50	79.0	79.0	80.0	50	58.7	2	5	270	0.00	30.013 
14:55	79.4	79.4	80.2	49	58.5	1	3	248	0.00	30.013 
15:00	79.8	79.8	80.6	50	59.5	1	4	248	0.00	30.010 
15:05	79.8	79.8	80.5	49	58.9	1	3	112	0.00	30.010 
15:10	79.6	79.6	80.2	47	57.6	1	2	0	0.00	30.010 
15:15	79.4	79.4	80.3	50	59.1	1	3	292	0.00	30.003 
15:20	79.9	79.9	80.4	47	57.8	2	5	248	0.00	30.003 
15:25	79.9	79.9	80.5	48	58.4	2	7	248	0.00	30.003 
15:30	79.4	79.4	80.1	47	57.4	3	6	270	0.00	29.997 
15:35	78.5	78.5	79.6	50	58.3	1	3	270	0.00	29.997 
15:40	78.3	78.3	79.7	54	60.3	0	2	270	0.00	29.997 
15:45	78.1	78.1	79.5	53	59.6	1	3	270	0.00	29.998 
15:50	77.9	77.9	79.3	52	58.8	0	2	270	0.00	29.998 
15:55	77.9	77.9	79.3	54	59.9	0	1	270	0.00	29.998 
16:00	78.6	78.6	79.7	51	58.9	0	2	270	0.00	29.992 
16:05	79.6	79.6	80.5	51	59.9	1	4	270	0.00	29.992 
16:10	79.8	79.8	80.5	48	58.3	2	5	248	0.00	29.992 
16:15	79.4	79.4	80.2	49	58.5	2	4	248	0.00	29.989 
16:20	78.5	78.5	79.6	50	58.3	1	3	248	0.00	29.989 
16:25	78.1	78.1	79.4	52	59.0	0	1	248	0.00	29.989 
16:30	77.7	77.7	79.2	53	59.2	0	2	248	0.00	29.987 
16:35	77.9	77.9	79.2	51	58.3	0	3	248	0.00	29.987 
16:40	77.7	77.7	79.1	52	58.6	1	2	292	0.00	29.987 
16:45	77.7	77.7	79.2	53	59.2	0	2	68	0.00	29.984 
16:50	77.7	77.7	79.2	53	59.2	0	3	22	0.00	29.984 
16:55	78.1	78.1	79.4	52	59.0	1	3	270	0.00	29.984 
17:00	78.6	78.6	79.8	52	59.5	1	2	270	0.00	29.981 
17:05	79.0	79.0	80.0	51	59.3	0	1	270	0.00	29.981 
17:10	79.4	79.4	80.1	47	57.4	1	3	270	0.00	29.981 
17:15	79.2	79.2	80.1	49	58.4	0	3	248	0.00	29.982 
17:20	79.2	79.2	80.0	48	57.8	1	3	248	0.00	29.982 
17:25	78.6	78.6	79.7	50	58.4	1	3	248	0.00	29.982 
17:30	78.1	78.1	79.3	49	57.4	1	2	248	0.00	29.981 
17:35	77.9	77.9	79.3	52	58.8	0	2	248	0.00	29.981 
17:40	78.1	78.1	79.4	52	59.0	1	3	112	0.00	29.981 
17:45	78.5	78.5	79.6	50	58.3	1	3	248	0.00	29.975 
17:50	78.6	78.6	79.7	51	58.9	1	2	248	0.00	29.975 
17:55	78.3	78.3	79.5	51	58.7	1	3	248	0.00	29.975 
18:00	78.3	78.3	79.4	49	57.5	0	2	248	0.00	29.969 
18:05	78.5	78.5	79.6	51	58.8	0	3	248	0.00	29.969 
18:10	78.1	78.1	79.2	48	56.8	1	2	248	0.00	29.969 
18:15	77.9	77.9	79.2	50	57.7	1	3	270	0.00	29.971 
18:20	77.9	77.9	79.2	50	57.7	2	4	248	0.00	29.971 
18:25	77.9	77.9	79.2	50	57.7	1	2	248	0.00	29.971 
18:30	77.7	77.7	79.0	49	57.0	1	3	248	0.00	29.970 
18:35	77.4	77.4	78.9	51	57.8	0	1	248	0.00	29.970 
18:40	77.4	77.4	78.9	52	58.4	0	0	---	0.00	29.970 
18:45	77.2	77.2	78.8	53	58.7	0	2	248	0.00	29.969 
18:50	77.0	77.0	78.6	50	56.9	1	2	248	0.00	29.969 
18:55	77.0	77.0	78.6	51	57.5	0	2	248	0.00	29.969 
19:00	76.7	76.7	78.5	53	58.3	0	3	248	0.00	29.969 
19:05	76.5	76.5	78.4	53	58.1	0	2	270	0.00	29.969 
19:10	76.1	76.1	78.1	53	57.7	0	2	270	0.00	29.969 
19:15	76.0	76.0	78.1	54	58.1	0	2	270	0.00	29.966 
19:20	75.8	75.8	78.0	54	57.9	0	2	270	0.00	29.966 
19:25	75.4	75.4	77.7	55	58.1	0	1	270	0.00	29.966 
19:30	75.1	75.1	77.6	56	58.3	0	1	270	0.00	29.966 
19:35	74.7	74.7	74.7	57	58.4	0	1	270	0.00	29.966 
19:40	74.4	74.4	74.4	58	58.6	0	0	---	0.00	29.966 
19:45	74.0	74.0	74.0	58	58.3	0	0	---	0.00	29.962 
19:50	73.5	73.5	73.5	59	58.3	0	0	---	0.00	29.962 
19:55	73.2	73.2	73.2	60	58.5	0	0	---	0.00	29.962 
20:00	72.8	72.8	72.8	62	59.0	0	0	---	0.00	29.964 
20:05	72.3	72.3	72.3	62	58.5	0	0	---	0.00	29.964 
20:10	71.8	71.8	71.8	64	59.0	0	0	---	0.00	29.964 
20:15	71.5	71.5	71.5	65	59.1	0	0	---	0.00	29.959 
20:20	70.9	70.9	70.9	66	59.0	0	0	---	0.00	29.959 
20:25	70.6	70.6	70.6	67	59.1	0	0	---	0.00	29.959 
20:30	70.1	70.1	70.1	68	59.0	0	0	---	0.00	29.962 
20:35	69.8	69.8	69.8	69	59.2	0	0	---	0.00	29.962 
20:40	69.3	69.3	69.3	70	59.1	0	0	---	0.00	29.962 
20:45	68.9	68.9	68.9	71	59.1	0	0	---	0.00	29.969 
20:50	68.6	68.6	68.6	73	59.6	0	0	---	0.00	29.969 
20:55	68.3	68.3	68.3	73	59.3	0	0	---	0.00	29.969 
21:00	67.8	67.8	67.8	75	59.6	0	0	---	0.00	29.972 
21:05	67.4	67.4	67.4	75	59.2	0	0	---	0.00	29.972 
21:10	67.1	67.1	67.1	76	59.3	0	0	---	0.00	29.972 
21:15	66.9	66.9	66.9	76	59.1	0	0	---	0.00	29.969 
21:20	66.6	66.6	66.6	78	59.5	0	0	---	0.00	29.969 
21:25	66.3	66.3	66.3	78	59.2	0	0	---	0.00	29.969 
21:30	66.0	66.0	66.0	79	59.3	0	0	---	0.00	29.975 
21:35	65.6	65.6	65.6	80	59.3	0	0	---	0.00	29.975 
21:40	65.3	65.3	65.3	81	59.3	0	0	---	0.00	29.975 
21:45	65.0	65.0	65.0	82	59.4	0	0	---	0.00	29.979 
21:50	64.7	64.7	64.7	82	59.1	0	0	---	0.00	29.979 
21:55	64.5	64.5	64.5	82	58.9	0	0	---	0.00	29.979 
22:00	64.3	64.3	64.3	84	59.4	0	0	---	0.00	29.984 
22:05	64.2	64.2	64.2	84	59.3	0	0	---	0.00	29.984 
22:10	64.0	64.0	64.0	84	59.1	0	0	---	0.00	29.984 
22:15	63.9	63.9	63.9	84	59.0	0	0	---	0.00	29.979 
22:20	63.7	63.7	63.7	84	58.8	0	0	---	0.00	29.979 
22:25	63.5	63.5	63.5	85	58.9	0	0	---	0.00	29.979 
22:30	63.5	63.5	63.5	86	59.2	0	0	---	0.00	29.978 
22:35	63.2	63.2	63.2	86	58.9	0	0	---	0.00	29.978 
22:40	63.1	63.1	63.1	86	58.8	0	0	---	0.00	29.978 
22:45	62.9	62.9	62.9	87	59.0	0	0	---	0.00	29.980 
22:50	62.7	62.7	62.7	88	59.1	0	0	---	0.00	29.980 
22:55	62.7	62.7	62.7	88	59.1	0	0	---	0.00	29.980 
23:00	62.6	62.6	62.6	88	59.0	0	0	---	0.00	29.980 
23:05	62.4	62.4	62.4	88	58.8	0	0	---	0.00	29.980 
23:10	62.3	62.3	62.3	88	58.7	0	0	---	0.00	29.980 
23:15	62.1	62.1	62.1	89	58.8	0	0	---	0.00	29.978 
23:20	62.0	62.0	62.0	89	58.7	0	0	---	0.00	29.978 
23:25	61.8	61.8	61.8	89	58.5	0	0	---	0.00	29.978 
23:30	61.6	61.6	61.6	89	58.3	0	0	---	0.00	29.975 
23:35	61.5	61.5	61.5	89	58.2	0	0	---	0.00	29.975 
23:40	61.3	61.3	61.3	89	58.0	0	0	---	0.00	29.975 
23:45	61.3	61.3	61.3	89	58.0	0	0	---	0.00	29.971 
23:50	61.3	61.3	61.3	89	58.0	0	0	---	0.00	29.971 
23:55	61.3	61.3	61.3	89	58.0	0	0	---	0.00	29.971 

CoCoRaHS
IN-AL-39
A2 Web Hosting
Creative Commons License
GoDaddy
Look for:

loaded 2017-10-17 09:40:24 • last modified 2010-11-18 10:43:29
Privacy PolicyDisclaimer
• wx.awcolley.com is powered by PmWiki v.2002016 •
• all content (unless otherwise noted) © 2017 A W Colley